createdAt,value
2018-06-05T00:01:45.875Z,22.43
2018-06-05T00:04:13.708Z,27.07
2018-06-05T00:06:41.528Z,21.57
2018-06-05T00:09:09.436Z,22.00
2018-06-05T00:11:37.288Z,25.70
2018-06-05T00:14:05.176Z,26.50
2018-06-05T00:16:32.977Z,25.50
2018-06-05T00:19:01.187Z,22.87
2018-06-05T00:21:29.456Z,20.37
2018-06-05T00:23:57.322Z,25.47
2018-06-05T00:26:25.116Z,26.07
2018-06-05T00:28:53.067Z,24.43
2018-06-05T00:31:21.259Z,29.07
2018-06-05T00:33:49.131Z,22.90
2018-06-05T00:36:16.940Z,29.53
2018-06-05T00:38:45.001Z,27.03
2018-06-05T00:41:12.706Z,24.70
2018-06-05T00:43:40.598Z,24.17
2018-06-05T00:46:08.524Z,23.67
2018-06-05T00:48:36.316Z,27.30
2018-06-05T00:51:14.309Z,23.60
2018-06-05T00:53:42.269Z,25.90
2018-06-05T00:56:10.138Z,28.60
2018-06-05T00:58:37.980Z,26.13
2018-06-05T01:01:05.785Z,25.60
2018-06-05T01:03:33.588Z,29.93
2018-06-05T01:06:01.374Z,29.33
2018-06-05T01:08:29.266Z,23.27
2018-06-05T01:10:57.041Z,25.80
2018-06-05T01:13:24.820Z,28.13
2018-06-05T01:15:52.599Z,27.40
2018-06-05T01:18:20.400Z,26.07
2018-06-05T01:20:49.217Z,32.47
2018-06-05T01:23:17.028Z,33.97
2018-06-05T01:25:44.817Z,28.17
2018-06-05T01:28:12.660Z,27.83
2018-06-05T01:30:40.488Z,28.80
2018-06-05T01:33:08.318Z,34.27
2018-06-05T01:35:36.150Z,31.20
2018-06-05T01:38:04.031Z,29.90
2018-06-05T01:40:31.918Z,26.87
2018-06-05T01:42:59.738Z,30.97
2018-06-05T01:45:27.582Z,37.50
2018-06-05T01:47:55.996Z,38.43
2018-06-05T01:50:23.809Z,34.40
2018-06-05T01:52:51.612Z,37.67
2018-06-05T01:55:19.440Z,37.60
2018-06-05T01:57:47.240Z,33.03
2018-06-05T02:00:15.056Z,45.07
2018-06-05T02:02:42.719Z,37.53
2018-06-05T02:05:10.548Z,41.20
2018-06-05T02:07:38.382Z,41.40
2018-06-05T02:10:06.191Z,36.47
2018-06-05T02:12:34.046Z,42.23
2018-06-05T02:15:01.779Z,38.77
2018-06-05T02:17:29.653Z,39.07
2018-06-05T02:19:57.470Z,37.90
2018-06-05T02:22:25.282Z,47.33
2018-06-05T02:24:53.052Z,49.13
2018-06-05T02:27:20.840Z,46.07
2018-06-05T02:29:48.621Z,43.80
2018-06-05T02:32:16.409Z,41.63
2018-06-05T02:34:44.206Z,47.83
2018-06-05T02:37:12.038Z,51.63
2018-06-05T02:39:39.729Z,45.57
2018-06-05T02:42:14.232Z,48.97
2018-06-05T02:44:42.052Z,47.90
2018-06-05T02:47:09.849Z,48.13
2018-06-05T02:49:37.527Z,47.50
2018-06-05T02:52:05.312Z,52.10
2018-06-05T02:54:33.132Z,52.30
2018-06-05T02:57:00.924Z,50.80
2018-06-05T02:59:28.579Z,51.40
2018-06-05T03:01:56.281Z,45.07
2018-06-05T03:04:24.126Z,48.17
2018-06-05T03:06:51.939Z,49.07
2018-06-05T03:09:19.767Z,48.90
2018-06-05T03:11:47.607Z,51.57
2018-06-05T03:14:15.443Z,53.13
2018-06-05T03:16:43.212Z,38.40
2018-06-05T03:19:11.029Z,49.47
2018-06-05T03:21:38.800Z,46.50
2018-06-05T03:24:06.651Z,48.87
2018-06-05T03:26:34.450Z,47.80
2018-06-05T03:29:02.285Z,47.00
2018-06-05T03:31:30.085Z,45.40
2018-06-05T03:33:57.845Z,42.23
2018-06-05T03:36:25.663Z,42.97
2018-06-05T03:38:53.469Z,37.70
2018-06-05T03:41:21.261Z,42.97
2018-06-05T03:43:49.131Z,45.10
2018-06-05T03:46:16.962Z,46.90
2018-06-05T03:48:44.796Z,47.60
2018-06-05T03:51:12.590Z,51.80
2018-06-05T03:53:40.355Z,44.00
2018-06-05T03:56:08.161Z,43.80
2018-06-05T03:58:35.924Z,48.13
2018-06-05T04:01:03.685Z,48.30
2018-06-05T04:03:31.520Z,49.80
2018-06-05T04:05:59.360Z,53.60
2018-06-05T04:08:27.182Z,49.77
2018-06-05T04:10:54.955Z,47.63
2018-06-05T04:13:22.779Z,48.27
2018-06-05T04:15:50.648Z,48.00
2018-06-05T04:18:18.443Z,49.80
2018-06-05T04:20:46.204Z,48.37
2018-06-05T04:23:13.979Z,52.83
2018-06-05T04:25:41.761Z,43.87
2018-06-05T04:28:09.554Z,55.37
2018-06-05T04:30:37.312Z,54.47
2018-06-05T04:33:04.965Z,52.00
2018-06-05T04:35:32.589Z,48.50
2018-06-05T04:38:00.332Z,49.43
2018-06-05T04:40:28.132Z,56.47
2018-06-05T04:42:55.861Z,44.90
2018-06-05T04:45:23.658Z,46.57
2018-06-05T04:47:51.468Z,46.83
2018-06-05T04:50:19.176Z,44.20
2018-06-05T04:52:47.012Z,43.03
2018-06-05T04:55:14.788Z,39.93
2018-06-05T04:57:42.618Z,47.10
2018-06-05T05:00:10.404Z,43.63
2018-06-05T05:02:38.174Z,42.80
2018-06-05T05:05:06.047Z,39.93
2018-06-05T05:07:33.840Z,36.60
2018-06-05T05:10:01.639Z,42.10
2018-06-05T05:12:29.415Z,41.87
2018-06-05T05:14:57.209Z,38.40
2018-06-05T05:17:25.007Z,37.50
2018-06-05T05:19:52.820Z,40.97
2018-06-05T05:22:20.677Z,50.27
2018-06-05T05:24:48.520Z,38.13
2018-06-05T05:27:16.304Z,37.77
2018-06-05T05:29:44.119Z,37.77
2018-06-05T05:32:11.903Z,37.47
2018-06-05T05:34:39.731Z,37.90
2018-06-05T05:37:08.344Z,39.20
2018-06-05T05:39:36.150Z,37.10
2018-06-05T05:42:03.884Z,30.60
2018-06-05T05:44:31.678Z,38.90
2018-06-05T05:46:59.515Z,39.03
2018-06-05T05:49:27.314Z,34.60
2018-06-05T05:51:55.179Z,33.87
2018-06-05T05:54:22.843Z,33.50
2018-06-05T05:56:50.543Z,34.10
2018-06-05T05:59:18.356Z,34.20
2018-06-05T06:01:46.129Z,35.10
2018-06-05T06:04:13.787Z,36.80
2018-06-05T06:06:41.596Z,32.10
2018-06-05T06:09:09.373Z,31.37
2018-06-05T06:11:37.225Z,29.20
2018-06-05T06:14:05.206Z,27.33
2018-06-05T06:16:32.976Z,31.10
2018-06-05T06:19:00.763Z,31.70
2018-06-05T06:21:28.562Z,29.80
2018-06-05T06:23:56.392Z,37.30
2018-06-05T06:26:24.160Z,34.27
2018-06-05T06:28:51.980Z,32.00
2018-06-05T06:31:19.841Z,29.43
2018-06-05T06:33:48.712Z,32.20
2018-06-05T06:36:16.386Z,30.47
2018-06-05T06:38:44.172Z,33.73
2018-06-05T06:41:12.044Z,31.57
2018-06-05T06:43:39.861Z,29.33
2018-06-05T06:46:07.672Z,33.20
2018-06-05T06:48:35.688Z,37.30
2018-06-05T06:51:04.556Z,35.60
2018-06-05T06:53:32.373Z,33.20
2018-06-05T06:56:00.172Z,34.87
2018-06-05T06:58:27.999Z,36.27
2018-06-05T07:00:55.796Z,36.33
2018-06-05T07:03:23.595Z,31.83
2018-06-05T07:05:51.359Z,28.47
2018-06-05T07:08:19.160Z,32.03
2018-06-05T07:10:47.075Z,30.23
2018-06-05T07:13:14.892Z,28.47
2018-06-05T07:15:42.759Z,30.90
2018-06-05T07:18:10.585Z,31.73
2018-06-05T07:20:38.424Z,29.03
2018-06-05T07:23:06.199Z,36.10
2018-06-05T07:25:34.023Z,30.37
2018-06-05T07:28:01.690Z,32.47
2018-06-05T07:30:29.523Z,30.23
2018-06-05T07:32:57.277Z,32.70
2018-06-05T07:35:25.048Z,28.67
2018-06-05T07:37:52.881Z,32.30
2018-06-05T07:40:20.740Z,25.10
2018-06-05T07:42:48.555Z,30.20
2018-06-05T07:45:16.380Z,28.30
2018-06-05T07:47:44.182Z,24.53
2018-06-05T07:50:11.966Z,30.37
2018-06-05T07:52:39.640Z,30.20
2018-06-05T07:55:07.346Z,26.83
2018-06-05T07:57:35.203Z,24.83
2018-06-05T08:00:03.649Z,28.90
2018-06-05T08:02:31.412Z,30.50
2018-06-05T08:04:59.282Z,25.90
2018-06-05T08:07:26.982Z,27.00
2018-06-05T08:09:54.770Z,26.40
2018-06-05T08:12:22.570Z,33.60
2018-06-05T08:14:50.255Z,27.37
2018-06-05T08:17:18.047Z,29.60
2018-06-05T08:19:45.904Z,26.83
2018-06-05T08:22:13.733Z,32.27
2018-06-05T08:24:41.395Z,34.30
2018-06-05T08:27:09.208Z,34.97
2018-06-05T08:29:37.939Z,33.73
2018-06-05T08:32:10.156Z,33.20
2018-06-05T08:34:37.955Z,31.37
2018-06-05T08:37:05.753Z,31.50
2018-06-05T08:39:33.452Z,32.90
2018-06-05T08:42:01.253Z,29.10
2018-06-05T08:44:29.013Z,28.47
2018-06-05T08:46:56.830Z,30.00
2018-06-05T08:49:24.552Z,37.10
2018-06-05T08:51:52.303Z,28.90
2018-06-05T08:54:20.152Z,27.80
2018-06-05T08:56:47.894Z,37.27
2018-06-05T08:59:15.662Z,28.73
2018-06-05T09:01:43.436Z,30.40
2018-06-05T09:04:11.241Z,33.30
2018-06-05T09:06:39.022Z,32.30
2018-06-05T09:09:07.857Z,25.67
2018-06-05T09:11:35.678Z,31.07
2018-06-05T09:14:03.395Z,30.77
2018-06-05T09:16:31.176Z,35.33
2018-06-05T09:18:58.988Z,29.73
2018-06-05T09:21:26.806Z,30.37
2018-06-05T09:23:54.618Z,33.00
2018-06-05T09:26:22.268Z,37.80
2018-06-05T09:28:50.070Z,30.40
2018-06-05T09:31:17.877Z,34.80
2018-06-05T09:33:45.666Z,32.13
2018-06-05T09:36:13.536Z,40.77
2018-06-05T09:38:41.194Z,42.67
2018-06-05T09:41:08.994Z,29.23
2018-06-05T09:43:36.858Z,38.30
2018-06-05T09:46:04.689Z,34.07
2018-06-05T09:48:32.495Z,33.57
2018-06-05T09:51:00.362Z,36.20
2018-06-05T09:53:28.206Z,31.43
2018-06-05T09:55:55.981Z,32.73
2018-06-05T09:58:23.913Z,33.23
2018-06-05T10:00:52.716Z,30.47
2018-06-05T10:03:21.108Z,31.47
2018-06-05T10:05:48.934Z,30.40
2018-06-05T10:08:16.751Z,33.93
2018-06-05T10:10:44.566Z,33.00
2018-06-05T10:13:12.432Z,37.90
2018-06-05T10:15:40.210Z,33.83
2018-06-05T10:18:08.036Z,34.10
2018-06-05T10:20:35.861Z,37.03
2018-06-05T10:23:03.508Z,34.30
2018-06-05T10:25:31.346Z,32.73
2018-06-05T10:27:59.270Z,39.20
2018-06-05T10:30:27.090Z,30.57
2018-06-05T10:32:54.767Z,31.00
2018-06-05T10:35:22.594Z,33.73
2018-06-05T10:37:50.373Z,33.53
2018-06-05T10:40:18.153Z,29.77
2018-06-05T10:42:45.978Z,34.00
2018-06-05T10:45:13.776Z,30.03
2018-06-05T10:47:41.626Z,28.33
2018-06-05T10:50:09.494Z,24.83
2018-06-05T10:52:37.309Z,30.47
2018-06-05T10:55:05.084Z,32.80
2018-06-05T10:57:32.740Z,27.77
2018-06-05T11:00:00.499Z,27.27
2018-06-05T11:02:28.130Z,30.13
2018-06-05T11:04:55.984Z,28.30
2018-06-05T11:07:23.771Z,33.17
2018-06-05T11:09:51.533Z,25.33
2018-06-05T11:12:19.429Z,25.20
2018-06-05T11:14:47.192Z,27.07
2018-06-05T11:17:14.819Z,30.10
2018-06-05T11:19:42.645Z,31.43
2018-06-05T11:22:10.462Z,26.47
2018-06-05T11:24:38.104Z,24.50
2018-06-05T11:27:05.918Z,25.53
2018-06-05T11:29:33.685Z,27.00
2018-06-05T11:32:01.489Z,27.40
2018-06-05T11:34:29.295Z,31.63
2018-06-05T11:36:57.124Z,31.10
2018-06-05T11:39:24.852Z,33.60
2018-06-05T11:41:52.689Z,26.50
2018-06-05T11:44:20.522Z,25.40
2018-06-05T11:46:48.328Z,27.83
2018-06-05T11:49:16.164Z,25.77
2018-06-05T11:51:43.906Z,27.83
2018-06-05T11:54:11.773Z,26.50
2018-06-05T11:56:39.553Z,26.67
2018-06-05T11:59:07.397Z,31.57
2018-06-05T12:01:35.160Z,29.03
2018-06-05T12:04:03.017Z,30.80
2018-06-05T12:06:30.829Z,27.57
2018-06-05T12:08:58.651Z,36.47
2018-06-05T12:11:26.433Z,34.70
2018-06-05T12:13:54.216Z,37.73
2018-06-05T12:16:22.102Z,30.00
2018-06-05T12:18:49.911Z,34.23
2018-06-05T12:21:17.699Z,32.47
2018-06-05T12:23:45.492Z,28.70
2018-06-05T12:26:14.288Z,27.13
2018-06-05T12:28:41.944Z,34.83
2018-06-05T12:31:09.741Z,28.23
2018-06-05T12:33:38.139Z,33.83
2018-06-05T12:36:06.087Z,36.03
2018-06-05T12:38:33.840Z,31.77
2018-06-05T12:41:01.513Z,32.90
2018-06-05T12:43:34.464Z,38.80
2018-06-05T12:46:02.475Z,38.07
2018-06-05T12:48:30.322Z,34.13
2018-06-05T12:50:58.259Z,34.47
2018-06-05T12:53:26.071Z,34.77
2018-06-05T12:55:53.727Z,34.77
2018-06-05T12:58:21.514Z,33.17
2018-06-05T13:00:49.440Z,35.20
2018-06-05T13:03:17.855Z,37.43
2018-06-05T13:05:45.625Z,37.27
2018-06-05T13:08:13.494Z,35.43
2018-06-05T13:10:41.903Z,34.40
2018-06-05T13:13:09.729Z,36.63
2018-06-05T13:15:37.524Z,40.23
2018-06-05T13:18:05.684Z,35.80
2018-06-05T13:20:33.457Z,37.47
2018-06-05T13:23:01.333Z,37.30
2018-06-05T13:25:29.055Z,38.30
2018-06-05T13:27:56.861Z,40.40
2018-06-05T13:30:25.316Z,37.30
2018-06-05T13:32:53.104Z,35.43
2018-06-05T13:35:20.911Z,43.73
2018-06-05T13:37:48.724Z,41.80
2018-06-05T13:40:16.466Z,43.40
2018-06-05T13:42:44.124Z,40.57
2018-06-05T13:45:11.793Z,37.67
2018-06-05T13:47:39.580Z,44.70
2018-06-05T13:50:07.358Z,38.57
2018-06-05T13:52:35.273Z,39.00
2018-06-05T13:55:03.065Z,43.20
2018-06-05T13:57:30.923Z,41.67
2018-06-05T13:59:59.000Z,45.97
2018-06-05T14:02:26.758Z,44.97
2018-06-05T14:04:54.387Z,41.93
2018-06-05T14:07:22.185Z,41.13
2018-06-05T14:09:49.843Z,41.27
2018-06-05T14:12:17.529Z,45.93
2018-06-05T14:14:45.340Z,40.77
2018-06-05T14:17:13.126Z,46.03
2018-06-05T14:19:40.882Z,51.60
2018-06-05T14:22:08.684Z,45.93
2018-06-05T14:24:36.450Z,46.17
2018-06-05T14:27:04.226Z,45.27
2018-06-05T14:29:32.051Z,38.17
2018-06-05T14:31:59.772Z,41.60
2018-06-05T14:34:27.567Z,45.30
2018-06-05T14:36:55.359Z,46.57
2018-06-05T14:39:23.095Z,37.23
2018-06-05T14:41:50.874Z,42.43
2018-06-05T14:44:18.682Z,44.53
2018-06-05T14:46:46.460Z,40.80
2018-06-05T14:49:14.198Z,39.80
2018-06-05T14:51:42.037Z,40.77
2018-06-05T14:54:09.919Z,37.53
2018-06-05T14:56:37.550Z,45.63
2018-06-05T14:59:05.319Z,45.13
2018-06-05T15:01:33.063Z,44.00
2018-06-05T15:04:00.796Z,38.40
2018-06-05T15:06:28.579Z,47.07
2018-06-05T15:08:56.340Z,44.80
2018-06-05T15:11:24.084Z,46.53
2018-06-05T15:13:51.956Z,42.67
2018-06-05T15:16:19.702Z,45.60
2018-06-05T15:18:47.426Z,36.40
2018-06-05T15:21:15.280Z,41.10
2018-06-05T15:23:43.029Z,39.73
2018-06-05T15:26:10.775Z,48.03
2018-06-05T15:28:38.518Z,43.30
2018-06-05T15:31:06.199Z,43.73
2018-06-05T15:33:34.025Z,42.07
2018-06-05T15:36:02.279Z,39.73
2018-06-05T15:38:30.056Z,37.27
2018-06-05T15:40:57.811Z,40.80
2018-06-05T15:43:25.567Z,38.13
2018-06-05T15:45:53.407Z,38.53
2018-06-05T15:48:21.293Z,39.43
2018-06-05T15:50:49.115Z,37.37
2018-06-05T15:53:16.728Z,39.00
2018-06-05T15:55:44.506Z,37.70
2018-06-05T15:58:12.425Z,41.10
2018-06-05T16:00:40.232Z,44.10
2018-06-05T16:03:08.021Z,40.50
2018-06-05T16:05:35.744Z,40.03
2018-06-05T16:08:03.644Z,41.33
2018-06-05T16:10:31.452Z,39.20
2018-06-05T16:12:59.832Z,35.47
2018-06-05T16:15:28.421Z,42.93
2018-06-05T16:17:56.534Z,37.90
2018-06-05T16:20:25.655Z,40.70
2018-06-05T16:22:53.936Z,44.23
2018-06-05T16:25:21.747Z,42.47
2018-06-05T16:27:49.596Z,42.73
2018-06-05T16:30:17.403Z,47.33
2018-06-05T16:32:45.216Z,41.90
2018-06-05T16:35:13.063Z,44.27
2018-06-05T16:37:41.023Z,45.00
2018-06-05T16:40:08.700Z,41.10
2018-06-05T16:42:37.109Z,48.07
2018-06-05T16:45:05.000Z,40.73
2018-06-05T16:47:32.839Z,43.47
2018-06-05T16:50:00.744Z,37.80
2018-06-05T16:52:28.607Z,35.77
2018-06-05T16:54:56.463Z,39.93
2018-06-05T16:57:24.273Z,41.50
2018-06-05T16:59:52.209Z,38.60
2018-06-05T17:02:19.996Z,41.93
2018-06-05T17:04:47.883Z,39.83
2018-06-05T17:07:15.647Z,44.00
2018-06-05T17:09:43.307Z,42.23
2018-06-05T17:12:11.202Z,46.53
2018-06-05T17:14:39.060Z,37.83
2018-06-05T17:17:06.979Z,37.60
2018-06-05T17:19:34.939Z,40.43
2018-06-05T17:22:02.765Z,36.57
2018-06-05T17:24:30.827Z,38.23
2018-06-05T17:26:58.540Z,43.20
2018-06-05T17:29:26.364Z,39.73
2018-06-05T17:31:54.132Z,40.20
2018-06-05T17:34:22.000Z,40.43
2018-06-05T17:36:49.887Z,41.43
2018-06-05T17:39:17.709Z,39.53
2018-06-05T17:41:45.602Z,37.67
2018-06-05T17:44:13.392Z,38.97
2018-06-05T17:46:41.208Z,38.47
2018-06-05T17:49:08.995Z,41.17
2018-06-05T17:51:36.803Z,43.27
2018-06-05T17:54:04.719Z,39.30
2018-06-05T17:56:32.612Z,45.53
2018-06-05T17:59:00.423Z,42.27
2018-06-05T18:01:28.284Z,52.17
2018-06-05T18:03:56.358Z,55.23
2018-06-05T18:06:24.373Z,51.37
2018-06-05T18:08:52.243Z,48.20
2018-06-05T18:11:20.125Z,45.60
2018-06-05T18:13:47.992Z,46.83
2018-06-05T18:16:15.819Z,51.67
2018-06-05T18:18:44.453Z,49.97
2018-06-05T18:21:12.358Z,48.93
2018-06-05T18:23:40.360Z,48.67
2018-06-05T18:26:08.228Z,49.60
2018-06-05T18:28:36.109Z,50.63
2018-06-05T18:31:07.493Z,53.27
2018-06-05T18:33:37.106Z,49.67
2018-06-05T18:36:05.654Z,46.33
2018-06-05T18:38:33.605Z,42.73
2018-06-05T18:41:01.924Z,44.50
2018-06-05T18:43:30.005Z,49.53
2018-06-05T18:45:57.891Z,48.43
2018-06-05T18:48:26.847Z,42.43
2018-06-05T18:50:54.656Z,44.67
2018-06-05T18:53:22.611Z,39.80
2018-06-05T18:55:50.416Z,40.33
2018-06-05T18:58:18.293Z,33.57
2018-06-05T19:00:46.850Z,37.43
2018-06-05T19:03:14.843Z,33.87
2018-06-05T19:05:42.644Z,32.37
2018-06-05T19:08:10.781Z,33.90
2018-06-05T19:10:38.684Z,43.80
2018-06-05T19:15:42.299Z,39.70
2018-06-05T19:18:10.812Z,29.67
2018-06-05T19:20:38.514Z,37.80
2018-06-05T19:23:06.479Z,31.10
2018-06-05T19:25:34.528Z,34.50
2018-06-05T19:28:02.631Z,30.43
2018-06-05T19:30:30.546Z,39.33
2018-06-05T19:32:58.490Z,30.70
2018-06-05T19:35:26.710Z,33.77
2018-06-05T19:37:54.629Z,38.77
2018-06-05T19:40:22.363Z,38.53
2018-06-05T19:42:50.180Z,33.60
2018-06-05T19:45:17.909Z,36.00
2018-06-05T19:47:45.803Z,42.30
2018-06-05T19:50:14.934Z,39.33
2018-06-05T19:52:42.925Z,41.67
2018-06-05T19:55:10.841Z,42.53
2018-06-05T19:57:38.738Z,42.43
2018-06-05T20:00:06.898Z,42.67
2018-06-05T20:02:34.849Z,39.63
2018-06-05T20:05:02.771Z,43.43
2018-06-05T20:07:30.690Z,41.20
2018-06-05T20:09:58.796Z,46.17
2018-06-05T20:12:26.752Z,43.13
2018-06-05T20:14:54.660Z,48.30
2018-06-05T20:17:22.492Z,40.00
2018-06-05T20:19:50.184Z,40.97
2018-06-05T20:22:18.048Z,40.77
2018-06-05T20:24:45.893Z,39.83
2018-06-05T20:27:13.577Z,39.60
2018-06-05T20:29:41.413Z,47.97
2018-06-05T20:32:09.515Z,45.40
2018-06-05T20:34:37.434Z,39.80
2018-06-05T20:37:05.622Z,53.63
2018-06-05T20:39:33.680Z,44.23
2018-06-05T20:42:01.521Z,47.67
2018-06-05T20:44:29.484Z,45.83
2018-06-05T20:46:57.908Z,55.93
2018-06-05T20:49:25.680Z,45.47
2018-06-05T20:51:54.164Z,56.70
2018-06-05T20:54:22.253Z,48.47
2018-06-05T20:56:54.032Z,51.87
2018-06-05T20:59:21.935Z,51.27
2018-06-05T21:01:49.847Z,51.90
2018-06-05T21:04:17.849Z,52.00
2018-06-05T21:06:45.972Z,57.20
2018-06-05T21:09:14.000Z,51.40
2018-06-05T21:11:42.762Z,50.70
2018-06-05T21:14:10.661Z,56.70
2018-06-05T21:16:38.473Z,62.90
2018-06-05T21:19:06.384Z,55.27
2018-06-05T21:21:34.240Z,58.17
2018-06-05T21:24:02.229Z,53.90
2018-06-05T21:26:30.450Z,56.00
2018-06-05T21:28:58.504Z,56.00
2018-06-05T21:31:26.636Z,59.50
2018-06-05T21:33:54.970Z,65.03
2018-06-05T21:36:22.822Z,55.73
2018-06-05T21:38:50.716Z,64.17
2018-06-05T21:41:18.533Z,58.07
2018-06-05T21:43:46.387Z,59.83
2018-06-05T21:46:14.561Z,62.87
2018-06-05T21:48:42.425Z,57.90
2018-06-05T21:51:10.788Z,57.83
2018-06-05T21:53:39.341Z,59.23
2018-06-05T21:56:07.305Z,59.00
2018-06-05T21:58:35.101Z,61.03
2018-06-05T22:01:03.104Z,64.43
2018-06-05T22:03:31.050Z,60.10
2018-06-05T22:05:59.416Z,59.97
2018-06-05T22:08:27.228Z,58.47
2018-06-05T22:10:55.075Z,61.93
2018-06-05T22:13:22.962Z,61.30
2018-06-05T22:15:51.033Z,58.17
2018-06-05T22:18:18.873Z,55.13
2018-06-05T22:20:46.775Z,58.50
2018-06-05T22:23:14.896Z,61.70
2018-06-05T22:25:42.568Z,62.67
2018-06-05T22:28:10.512Z,57.33
2018-06-05T22:30:38.364Z,64.97
2018-06-05T22:33:06.515Z,57.90
2018-06-05T22:35:34.625Z,60.57
2018-06-05T22:38:02.640Z,56.93
2018-06-05T22:40:30.491Z,52.17
2018-06-05T22:42:58.456Z,53.80
2018-06-05T22:45:27.193Z,59.47
2018-06-05T22:47:55.205Z,57.73
2018-06-05T22:50:23.832Z,56.40
2018-06-05T22:52:51.654Z,54.50
2018-06-05T22:55:19.437Z,51.50
2018-06-05T22:57:47.231Z,59.63
2018-06-05T23:00:21.974Z,53.07
2018-06-05T23:02:49.778Z,49.80
2018-06-05T23:05:17.544Z,51.70
2018-06-05T23:07:45.328Z,50.60
2018-06-05T23:10:13.090Z,54.70
2018-06-05T23:12:40.858Z,58.20
2018-06-05T23:15:09.008Z,53.23
2018-06-05T23:17:36.666Z,51.50
2018-06-05T23:20:04.425Z,48.73
2018-06-05T23:22:32.232Z,55.53
2018-06-05T23:24:59.984Z,57.67
2018-06-05T23:27:27.861Z,55.00
2018-06-05T23:29:55.656Z,53.13
2018-06-05T23:32:23.453Z,49.70
2018-06-05T23:34:51.217Z,58.73
2018-06-05T23:37:18.895Z,56.20
2018-06-05T23:39:46.661Z,52.70
2018-06-05T23:42:14.425Z,50.70
2018-06-05T23:44:42.232Z,53.30
2018-06-05T23:47:10.008Z,51.53
2018-06-05T23:49:37.830Z,61.90
2018-06-05T23:52:05.758Z,55.63
2018-06-05T23:54:33.927Z,55.37
2018-06-05T23:57:01.684Z,54.53
2018-06-05T23:59:29.503Z,56.73
